Airfield :
LOGIN :

Register | Disclaimer

   EN    FR    IT 

 










Legend :    VFR   Marginal VFR   IFR   Intensive IFR   Very Intensive IFR
Visi :
Ceiling :
>= 8 km
>= 3000ft
5 to 8 km
1000 to 3000 ft
1500m to 5 km
500 to 1000 ft
800 to 1500m
200 to 500 ft
< 800m
< 200 ft
Symbols :   Thunderstorms  Fog  Heavy snow  Heavy precipitations  Wind > 20 kt
SIGMETs :     Misc.  Thunderstorms  Icing  Turbulence  Mountain Waves  Volcanic Ashes






- Airport Elevation : 121 ft
- IATA code : HUY


EGNJ - Humberside

CURRENT METAR :
  • 031850Z AUTO 35013KT 9999 BKN009/// OVC013/// 11/09 Q1010

EXPIRED METARs :
  • 031820Z AUTO 35014KT 9999 BKN007/// OVC010/// 11/10 Q1010 RERA
  • 031750Z AUTO 36014KT 9999 BKN008/// OVC017/// 11/10 Q1010
  • 031720Z AUTO 35015KT 9999 -RA BKN006/// BKN009/// OVC014/// 11/10 Q1010
  • 031650Z AUTO 35016KT 9999 BKN007/// OVC010/// 11/10 Q1010 RERA

TAF AMD TAF EGNJ
Valid from the 03 at 16:00 until the 04 at 00:00 UTC


031629Z 0316/0324 36013KT 9999 BKN025
TEMPO 0316/0324 6000 RA BKN005
ATIS : +44 1652 682 020



MET'MAP, your aeronautical weather chart ! - Copyright ORBIFLY December 2007 - Disclaimer

ORBIFLY MET'MAP TEAM :

Programming & Development : Alexandra Zaïnal
Concept & original design : Baudouin d'Aumeries
Assistance for programming : Marc-Olivier Méhu
Technical & hardware support : Manuel Goepfert

Contact : metmap@orbifly.com




SOURCES & CREDITS :

   NOAA